Time;durP1;ratioP1;P1;durP2;ratioP2;P2;SDS_P1;SDS_P2;PMS_P1;PMS_P2;Temp;Humidity;BMP_temperature;BMP_pressure;BME280_temperature;BME280_humidity;BME280_pressure;Samples;Min_cycle;Max_cycle;Signal;HPM_P1;HPM_P2
2021/08/09 00:01:38;;;;;;;11.53;2.90;;;16.40;49.20;;;;;;5055561;28;20191;-77
2021/08/09 00:04:05;;;;;;;5.97;2.43;;;16.40;46.40;;;;;;5073887;28;20199;-78
2021/08/09 00:06:31;;;;;;;11.50;3.47;;;16.50;45.30;;;;;;5073429;28;20222;-79
2021/08/09 00:08:59;;;;;;;10.73;3.37;;;16.50;43.30;;;;;;5073338;28;20172;-76
2021/08/09 00:11:25;;;;;;;10.40;2.90;;;16.50;42.10;;;;;;5073272;28;20255;-79
2021/08/09 00:13:50;;;;;;;10.03;3.30;;;16.50;42.50;;;;;;5072822;28;20261;-79
2021/08/09 00:16:16;;;;;;;8.30;2.57;;;16.40;43.90;;;;;;5073160;28;20541;-80
2021/08/09 00:18:45;;;;;;;10.97;2.97;;;16.40;47.30;;;;;;5072826;28;20510;-78
2021/08/09 00:21:13;;;;;;;10.20;2.97;;;16.40;47.80;;;;;;5073238;28;20251;-77
2021/08/09 00:23:39;;;;;;;9.30;2.77;;;16.40;48.50;;;;;;5072931;28;20175;-79
2021/08/09 00:26:04;;;;;;;10.20;2.80;;;16.50;47.80;;;;;;5072936;28;20196;-78
2021/08/09 00:28:30;;;;;;;10.10;3.00;;;16.50;47.10;;;;;;5072763;28;20225;-77
2021/08/09 00:30:56;;;;;;;7.77;2.53;;;16.50;47.80;;;;;;5054994;28;20187;-80
2021/08/09 00:33:22;;;;;;;11.13;2.90;;;16.50;48.00;;;;;;5073242;28;20201;-79
2021/08/09 00:35:48;;;;;;;8.77;2.47;;;16.40;48.40;;;;;;5073201;28;20670;-77
2021/08/09 00:38:14;;;;;;;12.00;2.73;;;16.40;49.70;;;;;;5074286;28;20215;-78
2021/08/09 00:40:39;;;;;;;11.30;3.03;;;16.40;49.80;;;;;;5073747;28;20660;-77
2021/08/09 00:43:05;;;;;;;7.27;3.00;;;16.60;50.20;;;;;;5073605;28;20655;-78
2021/08/09 00:45:30;;;;;;;9.27;3.20;;;16.60;47.90;;;;;;5073615;28;20654;-78
2021/08/09 00:47:56;;;;;;;11.97;3.43;;;16.70;46.20;;;;;;5075754;28;20221;-78
2021/08/09 00:50:22;;;;;;;7.37;2.90;;;16.80;44.20;;;;;;5073358;28;20178;-77
2021/08/09 00:52:48;;;;;;;7.70;3.07;;;16.90;41.40;;;;;;5073084;28;20693;-78
2021/08/09 00:55:14;;;;;;;7.60;3.20;;;16.90;38.70;;;;;;5092825;28;20181;-77
2021/08/09 00:57:40;;;;;;;11.00;3.37;;;17.00;36.90;;;;;;5096550;28;20173;-77
2021/08/09 01:00:07;;;;;;;9.07;3.07;;;16.90;38.70;;;;;;5075756;28;20184;-78
2021/08/09 01:02:32;;;;;;;7.37;2.80;;;16.70;41.20;;;;;;5074492;28;20175;-79
2021/08/09 01:05:09;;;;;;;10.37;3.60;;;16.60;43.50;;;;;;5073338;28;20226;-79
2021/08/09 01:08:05;;;;;;;9.77;2.97;;;16.60;46.40;;;;;;5072896;28;20522;-79
2021/08/09 01:10:40;;;;;;;12.33;3.37;;;16.60;46.30;;;;;;5061946;28;20212;-78
2021/08/09 01:13:52;;;;;;;10.33;2.80;;;16.60;47.90;;;;;;5073937;28;20172;-77
2021/08/09 01:16:24;;;;;;;8.00;2.97;;;16.60;48.60;;;;;;5038062;28;20223;-78
2021/08/09 01:18:57;;;;;;;8.80;3.20;;;16.70;47.90;;;;;;5076468;28;20195;-77
2021/08/09 01:21:24;;;;;;;11.23;3.30;;;16.60;47.90;;;;;;5078802;28;20221;-79
2021/08/09 01:23:50;;;;;;;9.90;3.50;;;16.60;48.50;;;;;;5101284;28;20167;-79
2021/08/09 01:26:35;;;;;;;10.80;2.83;;;16.60;47.90;;;;;;5100878;28;20204;-76
2021/08/09 01:29:04;;;;;;;7.83;2.93;;;16.60;49.10;;;;;;5082373;28;20172;-77
2021/08/09 01:31:36;;;;;;;6.50;2.80;;;16.70;49.50;;;;;;5078657;28;20256;-76
2021/08/09 01:34:03;;;;;;;8.43;3.00;;;16.60;50.40;;;;;;5076688;28;20180;-77
2021/08/09 01:36:32;;;;;;;8.87;2.90;;;16.70;50.30;;;;;;5076237;28;20196;-79
2021/08/09 01:39:01;;;;;;;9.17;2.97;;;16.70;49.70;;;;;;5075896;28;20153;-78
2021/08/09 01:41:27;;;;;;;9.17;3.03;;;16.70;49.70;;;;;;5075841;28;20176;-77
2021/08/09 01:43:53;;;;;;;7.97;2.73;;;16.80;49.40;;;;;;5075575;28;20624;-79
2021/08/09 01:46:19;;;;;;;10.13;3.10;;;16.80;47.20;;;;;;5076709;28;20632;-79
2021/08/09 01:48:47;;;;;;;7.90;2.77;;;16.70;45.90;;;;;;5075770;28;20173;-79
2021/08/09 01:51:13;;;;;;;8.00;2.73;;;16.80;47.00;;;;;;5075845;28;20167;-77
2021/08/09 01:53:40;;;;;;;9.97;3.23;;;16.80;46.50;;;;;;5075842;28;20202;-78
2021/08/09 01:56:07;;;;;;;8.83;3.17;;;16.70;47.90;;;;;;5057351;28;20555;-79
2021/08/09 01:58:33;;;;;;;9.27;2.90;;;16.80;47.50;;;;;;5076014;28;20651;-79
2021/08/09 02:00:59;;;;;;;6.50;2.87;;;16.90;46.90;;;;;;5075593;28;20174;-78
2021/08/09 02:03:25;;;;;;;7.47;2.90;;;16.80;46.30;;;;;;5075752;28;20173;-78
2021/08/09 02:05:50;;;;;;;8.10;2.40;;;16.80;49.20;;;;;;5075664;28;20179;-81
2021/08/09 02:08:16;;;;;;;9.50;3.40;;;16.70;51.00;;;;;;5075716;28;20252;-78
2021/08/09 02:10:44;;;;;;;12.00;3.10;;;16.70;53.80;;;;;;5075134;28;20171;-77
2021/08/09 02:13:16;;;;;;;11.20;3.27;;;16.70;56.80;;;;;;5057464;28;20638;-77
2021/08/09 02:15:57;;;;;;;9.87;3.30;;;16.60;59.10;;;;;;5075098;28;20227;-78
2021/08/09 02:18:38;;;;;;;12.60;3.73;;;16.60;62.50;;;;;;5075195;28;20168;-78
2021/08/09 02:21:09;;;;;;;9.00;3.43;;;16.60;65.20;;;;;;5056874;28;20172;-79
2021/08/09 02:23:48;;;;;;;11.30;4.13;;;16.60;67.60;;;;;;5056263;28;20548;-79
2021/08/09 02:26:27;;;;;;;10.03;2.90;;;16.60;69.30;;;;;;5074593;28;20196;-79
2021/08/09 02:28:55;;;;;;;9.00;3.40;;;16.50;71.60;;;;;;5074916;28;20179;-78
2021/08/09 02:31:23;;;;;;;7.80;3.37;;;16.60;75.00;;;;;;5075099;28;20164;-78
2021/08/09 02:33:50;;;;;;;10.37;3.37;;;16.50;78.30;;;;;;5074831;28;20203;-78
2021/08/09 02:36:17;;;;;;;10.93;3.37;;;16.50;79.50;;;;;;5074734;28;20231;-77
2021/08/09 02:38:44;;;;;;;7.43;3.30;;;16.50;83.20;;;;;;5074603;28;20167;-81
2021/08/09 02:41:10;;;;;;;7.17;2.90;;;16.40;85.80;;;;;;5074742;28;20168;-78
2021/08/09 02:43:37;;;;;;;7.97;2.97;;;16.40;87.90;;;;;;5074883;28;20625;-78
2021/08/09 02:46:03;;;;;;;7.83;3.50;;;16.40;89.90;;;;;;5074698;28;20579;-77
2021/08/09 02:48:32;;;;;;;8.90;3.57;;;16.40;89.80;;;;;;5074837;28;20160;-76
2021/08/09 02:50:58;;;;;;;6.23;2.80;;;16.30;90.80;;;;;;5056456;28;20177;-78
2021/08/09 02:53:25;;;;;;;8.73;3.30;;;16.30;91.70;;;;;;5074816;28;20643;-78
2021/08/09 02:55:55;;;;;;;6.53;2.83;;;16.30;92.80;;;;;;5074591;28;20717;-77
2021/08/09 02:58:21;;;;;;;7.60;3.63;;;16.30;92.70;;;;;;5074619;28;20562;-79
2021/08/09 03:00:48;;;;;;;7.77;3.60;;;16.20;92.50;;;;;;5074478;28;20174;-79
2021/08/09 03:03:18;;;;;;;6.70;3.57;;;16.20;93.40;;;;;;5074175;28;20168;-77
2021/08/09 03:05:44;;;;;;;7.67;3.10;;;16.20;94.20;;;;;;5074359;28;20645;-77
2021/08/09 03:08:11;;;;;;;6.23;3.23;;;16.10;94.90;;;;;;5074084;28;20245;-77
2021/08/09 03:10:37;;;;;;;7.83;3.07;;;16.10;95.40;;;;;;5074306;28;20218;-80
2021/08/09 03:13:08;;;;;;;6.03;3.20;;;16.10;96.20;;;;;;5074667;28;20168;-77
2021/08/09 03:15:35;;;;;;;7.23;3.20;;;16.10;96.30;;;;;;5073847;28;20211;-77
2021/08/09 03:18:02;;;;;;;6.67;3.37;;;16.10;96.70;;;;;;5074100;28;20217;-78
2021/08/09 03:20:28;;;;;;;7.13;2.83;;;16.10;96.80;;;;;;5074273;28;20191;-79
2021/08/09 03:22:54;;;;;;;8.07;2.90;;;16.20;96.40;;;;;;5073541;28;20251;-82
2021/08/09 03:25:20;;;;;;;8.47;3.53;;;16.40;95.10;;;;;;5076375;28;20615;-76
2021/08/09 03:27:46;;;;;;;6.63;3.00;;;16.40;94.60;;;;;;5095365;28;20190;-78
2021/08/09 03:30:11;;;;;;;7.53;3.30;;;16.50;94.10;;;;;;5092082;28;20184;-77
2021/08/09 03:32:37;;;;;;;5.27;2.73;;;16.20;94.40;;;;;;5080981;28;20173;-77
2021/08/09 03:35:06;;;;;;;5.53;3.27;;;16.30;95.00;;;;;;5075775;28;20244;-77
2021/08/09 03:37:49;;;;;;;8.13;3.20;;;16.30;95.90;;;;;;5073598;28;20188;-79
2021/08/09 03:40:15;;;;;;;6.33;2.90;;;16.20;96.10;;;;;;5073489;28;20183;-79
2021/08/09 03:42:40;;;;;;;6.40;3.47;;;16.20;96.50;;;;;;5073418;28;20173;-77
2021/08/09 03:45:07;;;;;;;7.80;3.40;;;16.20;96.90;;;;;;5073646;28;20541;-77
2021/08/09 03:47:33;;;;;;;5.80;3.00;;;16.20;97.20;;;;;;5073750;28;20187;-79
2021/08/09 03:49:59;;;;;;;7.13;2.67;;;16.20;97.70;;;;;;5098043;28;20211;-76
2021/08/09 03:52:24;;;;;;;7.43;3.10;;;16.20;97.80;;;;;;5096333;28;20167;-77
2021/08/09 03:54:50;;;;;;;5.20;3.37;;;16.30;97.50;;;;;;5078329;28;20278;-77
2021/08/09 03:57:19;;;;;;;4.63;2.60;;;16.20;97.70;;;;;;5076448;28;20255;-79
2021/08/09 03:59:47;;;;;;;5.23;2.50;;;16.20;98.30;;;;;;5073970;28;20183;-77
2021/08/09 04:02:15;;;;;;;4.40;2.43;;;16.20;98.50;;;;;;5073426;28;20709;-78
2021/08/09 04:04:41;;;;;;;4.57;2.70;;;16.20;98.30;;;;;;5073214;28;20162;-77
2021/08/09 04:07:07;;;;;;;7.53;2.67;;;16.20;98.30;;;;;;5072719;28;20168;-79
2021/08/09 04:09:32;;;;;;;7.13;2.73;;;16.20;98.90;;;;;;5073131;28;20161;-80
2021/08/09 04:11:58;;;;;;;6.40;3.07;;;16.00;99.40;;;;;;5073035;28;20176;-77
2021/08/09 04:14:24;;;;;;;7.47;2.90;;;16.00;99.90;;;;;;5073199;28;20651;-77
2021/08/09 04:16:49;;;;;;;5.50;2.87;;;16.00;99.90;;;;;;5072972;28;20204;-78
2021/08/09 04:19:15;;;;;;;5.87;2.73;;;16.10;99.90;;;;;;5072998;28;20554;-78
2021/08/09 04:21:41;;;;;;;6.73;2.87;;;16.10;99.30;;;;;;5072716;28;20642;-78
2021/08/09 04:24:07;;;;;;;5.87;3.00;;;16.20;99.60;;;;;;5072826;28;20540;-79
2021/08/09 04:26:32;;;;;;;5.93;2.90;;;16.10;99.40;;;;;;5072899;28;20232;-78
2021/08/09 04:28:58;;;;;;;6.33;2.43;;;16.10;99.10;;;;;;5072767;28;20243;-78
2021/08/09 04:31:24;;;;;;;6.40;2.77;;;16.00;99.30;;;;;;5054927;28;20222;-80
2021/08/09 04:33:50;;;;;;;6.33;2.57;;;16.10;99.60;;;;;;5073067;28;20199;-81
2021/08/09 04:36:17;;;;;;;6.43;2.67;;;16.10;99.50;;;;;;5072777;28;20209;-78
2021/08/09 04:38:43;;;;;;;7.43;2.80;;;16.10;99.80;;;;;;5072958;28;20160;-76
2021/08/09 04:41:10;;;;;;;7.77;3.20;;;16.10;99.60;;;;;;5073079;28;20641;-76
2021/08/09 04:43:37;;;;;;;5.23;2.73;;;16.10;99.70;;;;;;5072645;28;20164;-77
2021/08/09 04:46:04;;;;;;;7.10;3.10;;;16.20;99.70;;;;;;5072762;28;20180;-77
2021/08/09 04:48:31;;;;;;;8.20;3.23;;;16.20;99.50;;;;;;5074779;28;20164;-78
2021/08/09 04:50:56;;;;;;;7.33;2.70;;;16.20;99.90;;;;;;5076916;28;20175;-79
2021/08/09 04:53:22;;;;;;;6.90;2.93;;;16.20;99.90;;;;;;5076690;28;20164;-77
2021/08/09 04:55:48;;;;;;;3.47;2.30;;;16.40;99.40;;;;;;5076573;28;20691;-78
2021/08/09 04:58:14;;;;;;;5.40;3.00;;;16.20;99.00;;;;;;5076282;28;20165;-76
2021/08/09 05:00:39;;;;;;;5.97;2.80;;;16.20;99.10;;;;;;5076583;28;20176;-77
2021/08/09 05:03:05;;;;;;;5.97;2.60;;;16.20;98.80;;;;;;5076235;28;20570;-77
2021/08/09 05:05:31;;;;;;;6.30;2.80;;;16.20;98.90;;;;;;5076513;28;20172;-78
2021/08/09 05:07:57;;;;;;;6.53;3.30;;;16.20;99.00;;;;;;5076470;28;20244;-77
2021/08/09 05:10:24;;;;;;;5.57;2.80;;;16.20;99.00;;;;;;5076410;28;20774;-79
2021/08/09 05:12:50;;;;;;;6.97;3.00;;;16.10;99.00;;;;;;5076429;28;20211;-79
2021/08/09 05:15:16;;;;;;;5.50;2.50;;;16.30;99.20;;;;;;5076267;28;20231;-77
2021/08/09 05:17:42;;;;;;;8.43;2.73;;;16.20;98.50;;;;;;5076177;28;20176;-78
2021/08/09 05:20:08;;;;;;;6.77;2.67;;;16.20;98.50;;;;;;5076041;28;20168;-78
2021/08/09 05:22:35;;;;;;;6.00;2.60;;;16.20;98.60;;;;;;5076352;28;20170;-76
2021/08/09 05:25:03;;;;;;;6.53;2.67;;;16.30;98.50;;;;;;5075916;28;20192;-80
2021/08/09 05:27:29;;;;;;;5.57;2.30;;;16.30;98.50;;;;;;5076141;28;20172;-80
2021/08/09 05:29:55;;;;;;;7.87;2.10;;;16.40;98.10;;;;;;5075980;28;20254;-81
2021/08/09 05:32:21;;;;;;;7.13;3.03;;;16.30;98.80;;;;;;5075720;28;20176;-78
2021/08/09 05:34:47;;;;;;;8.33;2.90;;;16.30;98.10;;;;;;5075953;28;20200;-76
2021/08/09 05:37:13;;;;;;;5.40;2.30;;;16.40;98.00;;;;;;5075835;28;20208;-77
2021/08/09 05:39:40;;;;;;;8.33;2.53;;;16.40;97.40;;;;;;5075516;28;20239;-78
2021/08/09 05:42:06;;;;;;;6.87;2.63;;;16.50;97.20;;;;;;5075710;28;20208;-79
2021/08/09 05:44:32;;;;;;;9.10;2.60;;;16.60;96.10;;;;;;5075621;28;20185;-78
2021/08/09 05:46:57;;;;;;;9.50;2.70;;;16.50;96.20;;;;;;5075687;28;20247;-77
2021/08/09 05:49:23;;;;;;;7.90;2.40;;;16.50;96.30;;;;;;5075746;28;20176;-80
2021/08/09 05:51:49;;;;;;;5.93;2.90;;;16.50;96.30;;;;;;5075574;28;20184;-80
2021/08/09 05:54:14;;;;;;;7.87;2.40;;;16.60;95.90;;;;;;5075443;28;20181;-77
2021/08/09 05:56:40;;;;;;;4.97;2.23;;;16.60;95.50;;;;;;5075807;28;20662;-77
2021/08/09 05:59:06;;;;;;;5.87;2.13;;;16.50;95.60;;;;;;5075314;28;20181;-77
2021/08/09 06:01:31;;;;;;;5.73;2.70;;;16.50;95.80;;;;;;5075426;28;20536;-77
2021/08/09 06:03:57;;;;;;;7.83;2.73;;;16.60;95.80;;;;;;5075416;28;20182;-79
2021/08/09 06:06:23;;;;;;;6.73;2.50;;;16.60;95.60;;;;;;5075217;28;20172;-78
2021/08/09 06:08:49;;;;;;;5.00;2.80;;;16.60;95.20;;;;;;5077992;28;20700;-77
2021/08/09 06:11:14;;;;;;;10.60;2.97;;;16.70;94.70;;;;;;5078526;28;20168;-82
2021/08/09 06:13:40;;;;;;;6.97;3.00;;;16.80;94.00;;;;;;5077607;28;20165;-80
2021/08/09 06:16:06;;;;;;;8.17;2.73;;;16.90;93.60;;;;;;5077477;28;20209;-79
2021/08/09 06:18:33;;;;;;;8.73;2.37;;;17.00;92.70;;;;;;5077270;28;20588;-77
2021/08/09 06:21:03;;;;;;;6.57;2.50;;;17.00;92.30;;;;;;5075064;28;20175;-78
2021/08/09 06:23:29;;;;;;;4.70;2.10;;;16.90;92.10;;;;;;5075561;28;20203;-77
2021/08/09 06:25:55;;;;;;;6.50;1.87;;;16.90;92.10;;;;;;5075742;28;20188;-78
2021/08/09 06:28:24;;;;;;;7.23;2.20;;;16.90;92.40;;;;;;5076211;28;20172;-79
2021/08/09 06:30:50;;;;;;;4.70;2.20;;;16.90;92.10;;;;;;5074919;28;20242;-79
2021/08/09 06:33:16;;;;;;;7.07;1.87;;;17.00;91.70;;;;;;5076165;28;20633;-78
2021/08/09 06:35:42;;;;;;;5.23;1.90;;;17.10;90.80;;;;;;5097937;28;20195;-78
2021/08/09 06:38:08;;;;;;;5.27;2.20;;;17.10;90.00;;;;;;5080530;28;20186;-81
2021/08/09 06:40:35;;;;;;;4.87;2.13;;;17.10;90.00;;;;;;5077419;28;20157;-78
2021/08/09 06:43:02;;;;;;;7.23;2.20;;;17.20;89.80;;;;;;5057734;28;20176;-78
2021/08/09 06:45:31;;;;;;;5.43;2.10;;;17.20;88.00;;;;;;5075251;28;20204;-80
2021/08/09 06:47:57;;;;;;;6.00;2.30;;;17.30;87.00;;;;;;5076021;28;20253;-80
2021/08/09 06:50:22;;;;;;;7.93;2.47;;;17.50;82.50;;;;;;5080145;28;20174;-76
2021/08/09 06:52:48;;;;;;;5.13;2.13;;;17.60;77.50;;;;;;5095172;28;20178;-77
2021/08/09 06:55:14;;;;;;;8.07;2.50;;;17.50;77.90;;;;;;5092542;28;20175;-77
2021/08/09 06:57:39;;;;;;;7.57;2.07;;;17.50;77.90;;;;;;5084476;28;20639;-80
2021/08/09 07:00:07;;;;;;;3.23;2.10;;;17.50;78.30;;;;;;5078402;28;20197;-78
2021/08/09 07:02:34;;;;;;;4.83;2.20;;;17.60;76.70;;;;;;5075916;28;20198;-80
2021/08/09 07:04:59;;;;;;;4.70;2.03;;;17.50;74.50;;;;;;5075581;28;20248;-79
2021/08/09 07:07:25;;;;;;;9.90;2.50;;;17.60;75.30;;;;;;5074535;28;20259;-80
2021/08/09 07:09:51;;;;;;;7.60;2.70;;;17.60;75.70;;;;;;5056143;28;20269;-82
2021/08/09 07:12:17;;;;;;;6.97;2.73;;;17.60;74.30;;;;;;5073833;28;20186;-77
2021/08/09 07:14:43;;;;;;;7.00;2.63;;;17.70;71.00;;;;;;5074295;28;20179;-77
2021/08/09 07:17:09;;;;;;;7.13;2.33;;;17.80;69.30;;;;;;5074311;28;20273;-79
2021/08/09 07:19:39;;;;;;;8.13;2.40;;;17.80;66.50;;;;;;5073825;28;20175;-80
2021/08/09 07:22:05;;;;;;;6.87;2.43;;;17.90;65.10;;;;;;5074421;28;20173;-81
2021/08/09 07:24:30;;;;;;;4.27;2.30;;;17.80;62.50;;;;;;5073943;28;20157;-82
2021/08/09 07:26:56;;;;;;;5.17;2.50;;;17.90;59.80;;;;;;5074121;28;20614;-82
2021/08/09 07:29:22;;;;;;;4.00;2.20;;;17.90;59.90;;;;;;5073801;28;20187;-79
2021/08/09 07:31:48;;;;;;;7.77;2.13;;;17.90;57.90;;;;;;5073716;28;20593;-81
2021/08/09 07:34:14;;;;;;;6.77;2.57;;;17.90;53.30;;;;;;5073794;28;20679;-80
2021/08/09 07:36:40;;;;;;;5.07;2.70;;;17.90;52.40;;;;;;5074135;28;20204;-82
2021/08/09 07:39:06;;;;;;;5.60;2.60;;;18.00;50.60;;;;;;5074000;28;20175;-80
2021/08/09 07:41:32;;;;;;;11.57;3.27;;;18.10;48.00;;;;;;5074187;28;20185;-80
2021/08/09 07:43:58;;;;;;;6.30;2.40;;;18.20;48.30;;;;;;5074133;28;20184;-78
2021/08/09 07:46:24;;;;;;;7.03;2.73;;;18.10;46.50;;;;;;5074353;28;20172;-79
2021/08/09 07:48:51;;;;;;;5.13;2.40;;;18.20;43.50;;;;;;5073377;28;20310;-79
2021/08/09 07:51:16;;;;;;;6.50;2.73;;;18.20;42.60;;;;;;5073490;28;20279;-79
2021/08/09 07:53:42;;;;;;;7.10;2.80;;;18.20;41.60;;;;;;5073233;28;20256;-78
2021/08/09 07:56:08;;;;;;;5.83;2.20;;;18.10;41.00;;;;;;5073896;28;20204;-78
2021/08/09 07:58:33;;;;;;;6.33;2.70;;;18.00;39.20;;;;;;5073349;28;20176;-77
2021/08/09 08:00:59;;;;;;;6.17;2.50;;;18.10;37.00;;;;;;5074428;28;20175;-81
2021/08/09 08:03:25;;;;;;;6.83;2.57;;;18.10;34.70;;;;;;5074731;28;20176;-81
2021/08/09 08:05:51;;;;;;;5.93;2.50;;;18.20;36.80;;;;;;5073645;28;20180;-77
2021/08/09 08:08:16;;;;;;;6.97;2.70;;;18.20;35.30;;;;;;5073816;28;20262;-79
2021/08/09 08:10:42;;;;;;;6.60;2.37;;;18.40;31.50;;;;;;5055648;28;20181;-77
2021/08/09 08:13:08;;;;;;;7.87;2.40;;;18.30;31.00;;;;;;5072831;28;20244;-79
2021/08/09 08:15:34;;;;;;;7.23;2.07;;;18.30;31.80;;;;;;5073681;28;20561;-78
2021/08/09 08:17:59;;;;;;;6.30;2.10;;;18.20;35.20;;;;;;5073228;28;20203;-79
2021/08/09 08:20:25;;;;;;;6.83;2.47;;;18.10;37.90;;;;;;5074602;28;20179;-80
2021/08/09 08:22:51;;;;;;;6.73;2.50;;;18.10;37.80;;;;;;5073865;28;20176;-82
2021/08/09 08:25:17;;;;;;;6.33;2.30;;;18.10;42.40;;;;;;5073807;28;20192;-80
2021/08/09 08:27:43;;;;;;;6.60;2.40;;;18.00;41.60;;;;;;5073694;28;20523;-78
2021/08/09 08:30:09;;;;;;;6.63;2.57;;;18.10;41.60;;;;;;5074835;28;20172;-80
2021/08/09 08:32:34;;;;;;;7.77;2.30;;;18.10;33.00;;;;;;5078554;28;20614;-79
2021/08/09 08:35:01;;;;;;;6.17;2.13;;;18.20;35.80;;;;;;5073732;28;20658;-78
2021/08/09 08:37:27;;;;;;;7.20;2.27;;;18.30;31.50;;;;;;5073987;28;20176;-77
2021/08/09 08:39:53;;;;;;;5.37;2.37;;;18.50;29.00;;;;;;5076244;28;20606;-80
2021/08/09 08:42:19;;;;;;;6.73;2.57;;;18.50;24.10;;;;;;5076875;28;20192;-79
2021/08/09 08:44:47;;;;;;;5.77;2.30;;;18.60;21.30;;;;;;5075284;28;20190;-80
2021/08/09 08:47:16;;;;;;;6.87;2.70;;;18.70;15.60;;;;;;5056304;28;20173;-80
2021/08/09 08:49:44;;;;;;;5.53;2.20;;;18.70;11.40;;;;;;5073182;28;20254;-79
2021/08/09 08:52:09;;;;;;;5.87;2.20;;;18.70;12.40;;;;;;5072769;28;20204;-83
2021/08/09 08:54:36;;;;;;;6.70;2.33;;;18.70;9.60;;;;;;5056715;28;20223;-81
2021/08/09 08:57:04;;;;;;;5.47;2.10;;;18.60;11.60;;;;;;5074990;28;20215;-81
2021/08/09 08:59:30;;;;;;;7.70;2.40;;;18.60;9.90;;;;;;5073243;28;20184;-78
2021/08/09 09:01:56;;;;;;;9.83;2.47;;;18.70;9.40;;;;;;5073231;28;20196;-80
2021/08/09 09:04:27;;;;;;;5.03;2.40;;;18.50;13.70;;;;;;5073320;28;20257;-82
2021/08/09 09:06:57;;;;;;;7.20;2.30;;;18.60;15.70;;;;;;5055267;28;20605;-80
2021/08/09 09:09:23;;;;;;;11.47;5.00;;;18.60;10.90;;;;;;5072255;28;20168;-82
2021/08/09 09:11:50;;;;;;;6.77;2.40;;;18.70;7.10;;;;;;5072469;28;20179;-82
2021/08/09 09:14:24;;;;;;;7.73;2.83;;;18.80;1.00;;;;;;5072655;28;20180;-78
2021/08/09 09:16:50;;;;;;;8.13;2.73;;;19.00;1.00;;;;;;5075099;28;20226;-81
2021/08/09 09:19:31;;;;;;;5.30;2.13;;;19.20;1.00;;;;;;5074322;28;20566;-80
2021/08/09 09:21:57;;;;;;;9.10;2.70;;;19.40;1.00;;;;;;5072485;28;20171;-77
2021/08/09 09:24:25;;;;;;;8.10;2.70;;;19.30;1.00;;;;;;5072314;28;20170;-81
2021/08/09 09:26:57;;;;;;;6.77;2.70;;;19.40;1.00;;;;;;5073132;28;20216;-78
2021/08/09 09:29:24;;;;;;;6.97;2.40;;;19.30;1.00;;;;;;5072633;28;20183;-79
2021/08/09 09:31:51;;;;;;;8.63;2.37;;;19.10;1.00;;;;;;5072601;28;20207;-80
2021/08/09 09:34:19;;;;;;;10.70;2.77;;;19.10;1.00;;;;;;5073889;28;20176;-80
2021/08/09 09:36:45;;;;;;;7.43;2.03;;;19.00;1.00;;;;;;5076676;28;20206;-81
2021/08/09 09:39:37;;;;;;;8.73;2.33;;;19.00;1.00;;;;;;5076030;28;20181;-80
2021/08/09 09:42:10;;;;;;;4.90;2.03;;;18.90;1.00;;;;;;5065583;28;20296;-81
2021/08/09 09:44:37;;;;;;;5.23;1.77;;;19.00;1.00;;;;;;5093147;28;20172;-80
2021/08/09 09:47:35;;;;;;;5.57;1.83;;;19.00;1.00;;;;;;5085973;28;20177;-82
2021/08/09 09:50:01;;;;;;;6.17;1.93;;;19.10;1.00;;;;;;5048710;28;20192;-81
2021/08/09 09:52:40;;;;;;;7.53;4.43;;;19.20;1.00;;;;;;5077685;28;20172;-81
2021/08/09 09:55:10;;;;;;;5.73;2.30;;;19.20;1.00;;;;;;5077463;28;20176;-80
2021/08/09 09:57:37;;;;;;;4.73;2.10;;;19.30;1.00;;;;;;5079689;28;20640;-81
2021/08/09 10:00:08;;;;;;;8.50;2.40;;;19.40;1.00;;;;;;5078720;28;20211;-81
2021/08/09 10:02:33;;;;;;;2.90;1.90;;;19.40;1.00;;;;;;5089018;28;20188;-82
2021/08/09 10:05:00;;;;;;;5.97;2.00;;;19.30;1.00;;;;;;5092011;28;20586;-76
2021/08/09 10:07:28;;;;;;;5.13;2.33;;;19.40;1.00;;;;;;5096929;28;20199;-78
2021/08/09 10:09:55;;;;;;;5.87;2.03;;;19.50;1.00;;;;;;5091974;28;20630;-82
2021/08/09 10:12:26;;;;;;;6.73;2.00;;;19.50;1.00;;;;;;5060355;28;20208;-80
2021/08/09 10:14:55;;;;;;;6.43;2.13;;;19.50;1.00;;;;;;5075944;28;20630;-81
2021/08/09 10:17:28;;;;;;;6.50;2.10;;;19.60;1.00;;;;;;5075259;28;20202;-82
2021/08/09 10:20:03;;;;;;;5.30;1.83;;;19.80;1.00;;;;;;5075132;28;20232;-82
2021/08/09 10:22:29;;;;;;;3.90;1.67;;;20.00;1.00;;;;;;5074892;28;20185;-82
2021/08/09 10:24:56;;;;;;;4.63;2.20;;;20.00;1.00;;;;;;5074705;28;20172;-84
2021/08/09 10:27:47;;;;;;;7.77;2.07;;;20.10;1.00;;;;;;5075141;28;20254;-83
2021/08/09 10:30:17;;;;;;;3.23;1.57;;;20.10;1.00;;;;;;5075120;28;20187;-82
2021/08/09 10:32:47;;;;;;;3.67;1.90;;;20.10;1.00;;;;;;5075027;28;20167;-81
2021/08/09 10:35:43;;;;;;;5.23;2.13;;;20.00;1.00;;;;;;5074508;28;20165;-81
2021/08/09 10:38:14;;;;;;;6.30;1.77;;;20.00;1.00;;;;;;5074355;28;20202;-81
2021/08/09 10:40:41;;;;;;;6.03;2.07;;;19.90;1.00;;;;;;5074871;28;20193;-80
2021/08/09 10:43:07;;;;;;;6.13;2.03;;;19.80;1.00;;;;;;5074663;28;20166;-81
2021/08/09 10:45:44;;;;;;;4.73;1.80;;;19.70;1.00;;;;;;5073678;28;20191;-81
2021/08/09 10:48:11;;;;;;;3.63;2.17;;;19.60;1.00;;;;;;5074893;28;20164;-81
2021/08/09 10:50:40;;;;;;;5.40;2.40;;;19.60;1.00;;;;;;5057945;28;20637;-80
2021/08/09 10:53:24;;;;;;;6.67;2.63;;;19.70;1.00;;;;;;5075798;28;20201;-80
2021/08/09 10:55:53;;;;;;;6.03;2.23;;;19.90;1.00;;;;;;5075061;28;20240;-80
2021/08/09 10:58:41;;;;;;;6.40;2.23;;;20.20;1.00;;;;;;5075138;28;20176;-82
2021/08/09 11:01:07;;;;;;;5.60;2.57;;;20.40;1.00;;;;;;5074393;28;20166;-81
2021/08/09 11:03:33;;;;;;;4.57;2.00;;;20.40;1.00;;;;;;5074382;28;20183;-81
2021/08/09 11:06:37;;;;;;;4.50;1.87;;;20.60;1.00;;;;;;5073876;28;20529;-79
2021/08/09 11:09:31;;;;;;;5.67;2.10;;;20.70;1.00;;;;;;5074052;28;20178;-81
2021/08/09 11:12:14;;;;;;;5.67;2.13;;;20.70;1.00;;;;;;5074601;28;20174;-80
2021/08/09 11:15:11;;;;;;;5.40;2.17;;;20.80;1.00;;;;;;5077062;28;20171;-79
2021/08/09 11:17:36;;;;;;;6.43;2.30;;;21.00;1.00;;;;;;5057795;28;20190;-82
2021/08/09 11:20:34;;;;;;;5.17;2.23;;;20.90;1.00;;;;;;5077169;28;20573;-78
2021/08/09 11:23:10;;;;;;;6.20;2.30;;;21.10;1.00;;;;;;5076995;28;20203;-79
2021/08/09 11:25:44;;;;;;;6.03;1.97;;;21.20;1.00;;;;;;5076659;28;20179;-82
2021/08/09 11:28:21;;;;;;;7.67;2.80;;;21.40;1.00;;;;;;5076296;28;20164;-82
2021/08/09 11:30:55;;;;;;;8.20;4.10;;;21.40;1.00;;;;;;5078531;28;20168;-83
2021/08/09 11:33:25;;;;;;;9.07;4.97;;;21.40;1.00;;;;;;5083473;28;20175;-80
2021/08/09 11:35:51;;;;;;;6.00;3.80;;;21.50;99.90;;;;;;5078145;28;20191;-81
2021/08/09 11:38:17;;;;;;;8.37;3.67;;;21.60;99.90;;;;;;5076501;28;20172;-82
2021/08/09 11:41:01;;;;;;;9.00;3.93;;;21.50;99.90;;;;;;5076487;28;20168;-81
2021/08/09 11:43:30;;;;;;;8.40;3.40;;;21.50;99.90;;;;;;5065665;28;20188;-81
2021/08/09 11:46:04;;;;;;;8.00;3.50;;;21.40;1.00;;;;;;5075124;28;20173;-80
2021/08/09 11:48:36;;;;;;;6.10;2.33;;;21.60;99.90;;;;;;5076637;28;20493;-80
2021/08/09 11:51:10;;;;;;;6.63;2.70;;;21.70;99.90;;;;;;5075363;28;20180;-83
2021/08/09 11:53:39;;;;;;;4.60;2.57;;;21.70;99.90;;;;;;5074857;28;20629;-81
2021/08/09 11:56:15;;;;;;;8.10;3.20;;;21.70;99.90;;;;;;5056190;28;20326;-80
2021/08/09 11:58:42;;;;;;;7.20;2.50;;;21.80;99.90;;;;;;5075011;28;20272;-78
2021/08/09 12:01:08;;;;;;;5.63;2.43;;;21.60;99.90;;;;;;5058993;28;20180;-82
2021/08/09 12:03:35;;;;;;;3.80;1.90;;;21.50;99.90;;;;;;5076069;28;20639;-79
2021/08/09 12:06:21;;;;;;;10.10;2.70;;;21.50;72.60;;;;;;5075247;28;20188;-81
2021/08/09 12:08:50;;;;;;;4.70;2.30;;;21.60;93.60;;;;;;5076278;28;20172;-79
2021/08/09 12:11:16;;;;;;;5.27;2.67;;;21.50;1.00;;;;;;5077758;28;20264;-82
2021/08/09 12:13:41;;;;;;;5.50;2.30;;;21.70;99.90;;;;;;5078497;28;20204;-78
2021/08/09 12:16:16;;;;;;;5.63;2.30;;;21.50;1.00;;;;;;5078263;28;20212;-84
2021/08/09 12:18:53;;;;;;;6.97;2.57;;;21.30;1.00;;;;;;5075649;28;20164;-79
2021/08/09 12:21:19;;;;;;;6.10;2.20;;;21.20;1.00;;;;;;5075798;28;20169;-82
2021/08/09 12:23:56;;;;;;;6.53;2.10;;;21.10;63.40;;;;;;5074799;28;20183;-80
2021/08/09 12:26:22;;;;;;;4.53;2.50;;;21.00;99.90;;;;;;5074753;28;20184;-81
2021/08/09 12:28:56;;;;;;;6.80;2.40;;;21.00;99.90;;;;;;5056512;28;20180;-81
2021/08/09 12:31:33;;;;;;;6.47;2.50;;;20.90;79.70;;;;;;5076741;28;20163;-82
2021/08/09 12:34:05;;;;;;;6.87;2.60;;;20.90;99.90;;;;;;5074972;28;20209;-80
2021/08/09 12:36:32;;;;;;;6.33;2.57;;;20.80;99.90;;;;;;5074489;28;20203;-80
2021/08/09 12:38:58;;;;;;;5.53;2.30;;;20.80;99.90;;;;;;5074945;28;20594;-79
2021/08/09 12:41:30;;;;;;;6.80;2.57;;;20.90;99.90;;;;;;5074668;28;20193;-80
2021/08/09 12:43:59;;;;;;;7.93;2.70;;;20.80;99.90;;;;;;5074622;28;20175;-80
2021/08/09 12:46:25;;;;;;;7.73;3.13;;;20.80;1.00;;;;;;5076311;28;20190;-82
2021/08/09 12:48:52;;;;;;;5.93;2.60;;;20.80;1.00;;;;;;5075453;28;20166;-81
2021/08/09 12:51:19;;;;;;;5.27;2.60;;;20.70;1.00;;;;;;5059458;28;20493;-77
2021/08/09 12:53:46;;;;;;;5.43;2.40;;;20.60;1.00;;;;;;5092098;28;20178;-78
2021/08/09 12:56:12;;;;;;;5.00;2.90;;;20.30;1.00;;;;;;5069983;28;20213;-81